createdAt,value
2018-09-29T00:00:40.690Z,99.90
2018-09-29T00:03:11.035Z,99.90
2018-09-29T00:05:40.188Z,99.90
2018-09-29T00:08:09.128Z,99.90
2018-09-29T00:10:38.679Z,99.90
2018-09-29T00:13:07.836Z,99.90
2018-09-29T00:15:41.308Z,99.90
2018-09-29T00:18:11.337Z,99.90
2018-09-29T00:20:40.416Z,99.90
2018-09-29T00:23:14.116Z,99.90
2018-09-29T00:25:43.003Z,99.90
2018-09-29T00:28:11.947Z,99.90
2018-09-29T00:30:45.345Z,99.90
2018-09-29T00:33:15.074Z,99.90
2018-09-29T00:35:44.108Z,99.90
2018-09-29T00:38:14.245Z,99.90
2018-09-29T00:40:43.150Z,99.90
2018-09-29T00:43:12.977Z,99.90
2018-09-29T00:45:42.809Z,99.90
2018-09-29T00:48:12.206Z,99.90
2018-09-29T00:50:41.663Z,99.90
2018-09-29T00:53:10.590Z,99.90
2018-09-29T00:55:39.792Z,99.90
2018-09-29T00:58:08.799Z,99.90
2018-09-29T01:00:37.955Z,99.90
2018-09-29T01:03:07.090Z,99.90
2018-09-29T01:05:35.922Z,99.90
2018-09-29T01:08:05.303Z,99.90
2018-09-29T01:10:34.718Z,99.90
2018-09-29T01:13:03.583Z,99.90
2018-09-29T01:15:32.886Z,99.90
2018-09-29T01:18:01.956Z,99.90
2018-09-29T01:20:30.859Z,99.90
2018-09-29T01:22:59.973Z,99.90
2018-09-29T01:25:28.960Z,99.90
2018-09-29T01:27:57.787Z,99.90
2018-09-29T01:30:30.831Z,99.90
2018-09-29T01:33:00.191Z,99.90
2018-09-29T01:35:29.557Z,99.90
2018-09-29T01:37:59.268Z,99.90
2018-09-29T01:40:28.864Z,99.90
2018-09-29T01:42:57.801Z,99.90
2018-09-29T01:45:26.913Z,99.90
2018-09-29T01:47:56.509Z,99.90
2018-09-29T01:50:25.379Z,99.90
2018-09-29T01:52:58.067Z,99.90
2018-09-29T01:55:27.570Z,99.90
2018-09-29T01:57:56.673Z,99.90
2018-09-29T02:00:26.442Z,99.90
2018-09-29T02:02:55.766Z,99.90
2018-09-29T02:05:25.778Z,99.90
2018-09-29T02:07:56.014Z,99.90
2018-09-29T02:10:25.546Z,99.90
2018-09-29T02:12:55.234Z,99.90
2018-09-29T02:15:25.386Z,99.90
2018-09-29T02:17:55.952Z,99.90
2018-09-29T02:20:25.659Z,99.90
2018-09-29T02:22:55.677Z,99.90
2018-09-29T02:25:25.295Z,99.90
2018-09-29T02:27:54.468Z,99.90
2018-09-29T02:30:23.750Z,99.90
2018-09-29T02:32:52.678Z,99.90
2018-09-29T02:35:22.210Z,99.90
2018-09-29T02:37:51.806Z,99.90
2018-09-29T02:40:21.628Z,99.90
2018-09-29T02:42:51.119Z,99.90
2018-09-29T02:45:20.851Z,99.90
2018-09-29T02:47:49.828Z,99.90
2018-09-29T02:50:18.872Z,99.90
2018-09-29T02:52:48.141Z,99.90
2018-09-29T02:55:16.860Z,99.90
2018-09-29T02:57:45.813Z,99.90
2018-09-29T03:00:15.207Z,99.90
2018-09-29T03:02:44.092Z,99.90
2018-09-29T03:05:13.710Z,99.90
2018-09-29T03:07:43.453Z,99.90
2018-09-29T03:10:12.997Z,99.90
2018-09-29T03:12:41.929Z,99.90
2018-09-29T03:15:11.293Z,99.90
2018-09-29T03:17:40.143Z,99.90
2018-09-29T03:20:09.142Z,99.90
2018-09-29T03:22:38.444Z,99.90
2018-09-29T03:25:07.191Z,99.90
2018-09-29T03:27:36.669Z,99.90
2018-09-29T03:30:05.850Z,99.90
2018-09-29T03:32:34.842Z,99.90
2018-09-29T03:35:04.301Z,99.90
2018-09-29T03:37:34.173Z,99.90
2018-09-29T03:40:03.169Z,99.90
2018-09-29T03:42:32.777Z,99.90
2018-09-29T03:45:02.543Z,99.90
2018-09-29T03:47:31.905Z,99.90
2018-09-29T03:50:00.855Z,99.90
2018-09-29T03:52:30.012Z,99.90
2018-09-29T03:54:59.591Z,99.90
2018-09-29T03:57:28.557Z,99.90
2018-09-29T03:59:57.456Z,99.90
2018-09-29T04:02:26.391Z,99.90
2018-09-29T04:04:55.465Z,99.90
2018-09-29T04:07:24.461Z,99.90
2018-09-29T04:09:53.488Z,99.90
2018-09-29T04:12:22.448Z,99.90
2018-09-29T04:14:52.240Z,99.90
2018-09-29T04:17:23.011Z,99.90
2018-09-29T04:19:51.813Z,99.90
2018-09-29T04:22:21.261Z,99.90
2018-09-29T04:24:51.011Z,99.90
2018-09-29T04:27:20.157Z,99.90
2018-09-29T04:29:49.352Z,99.90
2018-09-29T04:32:18.416Z,99.90
2018-09-29T04:34:47.324Z,99.90
2018-09-29T04:37:17.235Z,99.90
2018-09-29T04:39:46.061Z,99.90
2018-09-29T04:42:15.675Z,99.90
2018-09-29T04:44:45.876Z,99.90
2018-09-29T04:47:15.901Z,99.90
2018-09-29T04:49:45.505Z,99.90
2018-09-29T04:52:14.939Z,99.90
2018-09-29T04:54:44.021Z,99.90
2018-09-29T04:57:13.582Z,99.90
2018-09-29T04:59:43.797Z,99.90
2018-09-29T05:02:13.843Z,99.90
2018-09-29T05:04:43.081Z,99.90
2018-09-29T05:07:14.955Z,99.90
2018-09-29T05:09:44.643Z,99.90
2018-09-29T05:12:14.153Z,99.90
2018-09-29T05:14:43.850Z,99.90
2018-09-29T05:17:12.752Z,99.90
2018-09-29T05:19:41.609Z,99.90
2018-09-29T05:22:10.673Z,99.90
2018-09-29T05:24:40.727Z,99.90
2018-09-29T05:27:09.646Z,99.90
2018-09-29T05:29:38.647Z,99.90
2018-09-29T05:32:07.612Z,99.90
2018-09-29T05:34:37.265Z,99.90
2018-09-29T05:37:08.107Z,99.90
2018-09-29T05:39:37.582Z,99.90
2018-09-29T05:42:07.114Z,99.90
2018-09-29T05:44:37.903Z,99.90
2018-09-29T05:47:06.867Z,99.90
2018-09-29T05:49:36.443Z,99.90
2018-09-29T05:52:09.060Z,99.90
2018-09-29T05:54:38.021Z,99.90
2018-09-29T05:57:07.295Z,99.90
2018-09-29T05:59:39.942Z,99.90
2018-09-29T06:02:10.193Z,99.90
2018-09-29T06:04:39.786Z,99.90
2018-09-29T06:07:08.805Z,99.90
2018-09-29T06:09:37.664Z,99.90
2018-09-29T06:12:06.691Z,99.90
2018-09-29T06:14:35.564Z,99.90
2018-09-29T06:17:04.548Z,99.90
2018-09-29T06:19:34.882Z,99.90
2018-09-29T06:22:05.358Z,99.90
2018-09-29T06:24:34.798Z,99.90
2018-09-29T06:27:03.714Z,99.90
2018-09-29T06:29:32.795Z,99.90
2018-09-29T06:32:02.660Z,99.90
2018-09-29T06:34:33.178Z,99.90
2018-09-29T06:37:02.340Z,99.90
2018-09-29T06:39:31.811Z,99.90
2018-09-29T06:42:01.493Z,99.90
2018-09-29T06:44:31.360Z,99.90
2018-09-29T06:47:00.492Z,99.90
2018-09-29T06:49:29.894Z,99.90
2018-09-29T06:51:58.863Z,99.90
2018-09-29T06:54:27.831Z,99.90
2018-09-29T06:56:56.902Z,99.90
2018-09-29T06:59:26.742Z,99.90
2018-09-29T07:01:55.696Z,99.90
2018-09-29T07:04:25.715Z,99.90
2018-09-29T07:06:54.671Z,99.90
2018-09-29T07:09:23.900Z,99.90
2018-09-29T07:11:52.892Z,99.90
2018-09-29T07:14:21.917Z,99.90
2018-09-29T07:16:51.824Z,99.90
2018-09-29T07:19:21.515Z,99.90
2018-09-29T07:21:50.695Z,99.90
2018-09-29T07:24:20.775Z,99.90
2018-09-29T07:26:50.337Z,99.90
2018-09-29T07:29:19.353Z,99.90
2018-09-29T07:31:49.050Z,99.90
2018-09-29T07:34:17.973Z,99.90
2018-09-29T07:36:47.290Z,99.90
2018-09-29T07:39:16.343Z,99.90
2018-09-29T07:41:45.979Z,99.90
2018-09-29T07:44:15.021Z,99.90
2018-09-29T07:46:44.367Z,99.90
2018-09-29T07:49:14.427Z,99.90
2018-09-29T07:51:43.288Z,99.90
2018-09-29T07:54:12.214Z,99.90
2018-09-29T07:56:41.395Z,99.90
2018-09-29T07:59:10.278Z,99.90
2018-09-29T08:01:39.574Z,99.90
2018-09-29T08:04:08.544Z,99.90
2018-09-29T08:06:38.843Z,99.90
2018-09-29T08:09:08.614Z,99.90
2018-09-29T08:11:38.166Z,99.90
2018-09-29T08:14:07.283Z,99.90
2018-09-29T08:16:36.331Z,99.90
2018-09-29T08:19:05.274Z,99.90
2018-09-29T08:21:34.365Z,99.90
2018-09-29T08:24:04.150Z,99.90
2018-09-29T08:26:33.739Z,99.90
2018-09-29T08:29:03.116Z,99.90
2018-09-29T08:31:32.406Z,99.90
2018-09-29T08:34:01.497Z,99.90
2018-09-29T08:36:31.169Z,99.90
2018-09-29T08:39:00.281Z,99.90
2018-09-29T08:41:29.424Z,99.90
2018-09-29T08:43:58.537Z,99.90
2018-09-29T08:46:27.792Z,99.90
2018-09-29T08:48:57.386Z,99.90
2018-09-29T08:51:26.815Z,99.90
2018-09-29T08:53:56.033Z,99.90
2018-09-29T08:56:25.014Z,99.90
2018-09-29T08:58:54.168Z,99.90
2018-09-29T09:01:25.836Z,99.90
2018-09-29T09:03:55.342Z,99.90
2018-09-29T09:06:25.129Z,99.90
2018-09-29T09:08:54.508Z,99.90
2018-09-29T09:11:24.108Z,99.90
2018-09-29T09:13:53.896Z,99.90
2018-09-29T09:16:22.834Z,99.90
2018-09-29T09:18:51.997Z,99.90
2018-09-29T09:21:20.829Z,99.90
2018-09-29T09:23:50.485Z,99.90
2018-09-29T09:26:19.507Z,99.90
2018-09-29T09:28:48.631Z,99.90
2018-09-29T09:31:17.738Z,99.90
2018-09-29T09:33:46.952Z,99.90
2018-09-29T09:36:16.205Z,99.90
2018-09-29T09:38:45.471Z,99.90
2018-09-29T09:41:14.624Z,99.90
2018-09-29T09:43:43.746Z,99.90
2018-09-29T09:46:12.828Z,99.90
2018-09-29T09:48:42.046Z,99.90
2018-09-29T09:51:11.333Z,99.90
2018-09-29T09:53:40.473Z,99.90
2018-09-29T09:56:09.631Z,99.60
2018-09-29T09:58:39.359Z,98.60
2018-09-29T10:01:13.591Z,98.60
2018-09-29T10:03:43.258Z,97.40
2018-09-29T10:06:14.905Z,96.70
2018-09-29T10:08:45.759Z,97.20
2018-09-29T10:11:14.859Z,96.80
2018-09-29T10:13:43.955Z,95.60
2018-09-29T10:16:13.076Z,95.70
2018-09-29T10:18:42.235Z,96.20
2018-09-29T10:21:12.499Z,93.80
2018-09-29T10:23:42.232Z,92.50
2018-09-29T10:26:11.246Z,94.30
2018-09-29T10:28:40.343Z,93.70
2018-09-29T10:31:09.989Z,93.70
2018-09-29T10:33:39.192Z,92.40
2018-09-29T10:36:08.324Z,91.60
2018-09-29T10:38:37.760Z,92.80
2018-09-29T10:41:07.467Z,91.60
2018-09-29T10:43:37.235Z,90.70
2018-09-29T10:46:06.506Z,89.30
2018-09-29T10:48:35.607Z,89.30
2018-09-29T10:51:04.764Z,91.00
2018-09-29T10:53:34.090Z,90.40
2018-09-29T10:56:03.240Z,85.40
2018-09-29T10:58:32.472Z,87.90
2018-09-29T11:01:01.586Z,89.10
2018-09-29T11:03:30.710Z,86.70
2018-09-29T11:05:59.881Z,82.70
2018-09-29T11:08:29.241Z,87.60
2018-09-29T11:10:59.554Z,84.60
2018-09-29T11:13:29.429Z,85.00
2018-09-29T11:15:59.195Z,86.20
2018-09-29T11:18:28.370Z,87.40
2018-09-29T11:20:57.633Z,88.20
2018-09-29T11:23:26.646Z,83.70
2018-09-29T11:25:55.738Z,83.30
2018-09-29T11:28:25.023Z,84.60
2018-09-29T11:30:54.162Z,84.40
2018-09-29T11:33:23.340Z,81.70
2018-09-29T11:35:53.235Z,82.70
2018-09-29T11:38:22.895Z,83.20
2018-09-29T11:40:51.755Z,82.60
2018-09-29T11:43:20.536Z,80.50
2018-09-29T11:45:49.474Z,76.80
2018-09-29T11:48:18.286Z,81.20
2018-09-29T11:50:47.118Z,82.20
2018-09-29T11:53:16.223Z,84.30
2018-09-29T11:55:45.374Z,81.30
2018-09-29T11:58:14.412Z,80.40
2018-09-29T12:00:43.528Z,75.20
2018-09-29T12:03:12.731Z,77.90
2018-09-29T12:05:41.721Z,79.30
2018-09-29T12:08:11.084Z,78.70
2018-09-29T12:10:40.400Z,75.50
2018-09-29T12:13:09.441Z,77.10
2018-09-29T12:15:38.520Z,78.50
2018-09-29T12:18:07.540Z,73.60
2018-09-29T12:20:36.575Z,76.00
2018-09-29T12:23:05.748Z,75.70
2018-09-29T12:25:34.838Z,77.10
2018-09-29T12:28:02.861Z,76.80
2018-09-29T12:30:30.948Z,73.60
2018-09-29T12:32:59.026Z,75.30
2018-09-29T12:35:27.707Z,71.00
2018-09-29T12:37:56.970Z,72.90
2018-09-29T12:40:26.022Z,70.90
2018-09-29T12:42:54.206Z,68.30
2018-09-29T12:45:23.423Z,67.90
2018-09-29T12:47:52.656Z,67.50
2018-09-29T12:50:21.852Z,61.00
2018-09-29T12:52:51.117Z,63.90
2018-09-29T12:55:20.355Z,66.10
2018-09-29T12:57:49.575Z,66.00
2018-09-29T13:00:18.658Z,66.50
2018-09-29T13:02:47.850Z,71.10
2018-09-29T13:05:17.228Z,74.70
2018-09-29T13:07:46.025Z,69.10
2018-09-29T13:10:15.466Z,72.60
2018-09-29T13:12:44.331Z,71.10
2018-09-29T13:15:13.116Z,71.80
2018-09-29T13:17:41.306Z,70.70
2018-09-29T13:20:09.386Z,66.40
2018-09-29T13:22:37.454Z,67.60
2018-09-29T13:25:05.636Z,69.90
2018-09-29T13:27:34.709Z,70.30
2018-09-29T13:30:04.677Z,70.70
2018-09-29T13:32:33.749Z,64.10
2018-09-29T13:35:03.544Z,66.60
2018-09-29T13:37:32.750Z,59.50
2018-09-29T13:40:03.331Z,60.90
2018-09-29T13:42:32.416Z,58.10
2018-09-29T13:45:01.888Z,58.40
2018-09-29T13:47:30.985Z,66.50
2018-09-29T13:50:00.634Z,61.20
2018-09-29T13:52:30.015Z,62.40
2018-09-29T13:54:58.955Z,62.80
2018-09-29T13:57:28.121Z,64.10
2018-09-29T13:59:57.845Z,61.00
2018-09-29T14:02:26.860Z,61.60
2018-09-29T14:04:55.945Z,61.30
2018-09-29T14:07:26.676Z,63.10
2018-09-29T14:09:55.753Z,64.90
2018-09-29T14:12:24.868Z,61.50
2018-09-29T14:14:54.289Z,62.10
2018-09-29T14:17:23.789Z,63.00
2018-09-29T14:19:52.820Z,60.90
2018-09-29T14:22:22.713Z,58.70
2018-09-29T14:24:51.131Z,58.80
2018-09-29T14:27:20.062Z,59.40
2018-09-29T14:29:49.195Z,57.20
2018-09-29T14:32:18.257Z,64.00
2018-09-29T14:34:47.502Z,58.70
2018-09-29T14:37:16.653Z,57.00
2018-09-29T14:39:46.636Z,59.80
2018-09-29T14:42:15.866Z,61.20
2018-09-29T14:44:45.079Z,59.40
2018-09-29T14:47:14.354Z,63.50
2018-09-29T14:49:43.696Z,59.40
2018-09-29T14:52:13.206Z,59.40
2018-09-29T14:54:42.295Z,59.00
2018-09-29T14:57:12.754Z,62.80
2018-09-29T14:59:44.292Z,60.20
2018-09-29T15:02:13.796Z,58.80
2018-09-29T15:04:42.821Z,60.60
2018-09-29T15:07:11.917Z,63.80
2018-09-29T15:09:40.918Z,65.40
2018-09-29T15:12:09.989Z,62.20
2018-09-29T15:14:40.100Z,64.60
2018-09-29T15:17:09.275Z,67.20
2018-09-29T15:19:38.247Z,63.50
2018-09-29T15:22:07.354Z,63.60
2018-09-29T15:24:37.257Z,63.40
2018-09-29T15:27:06.472Z,63.20
2018-09-29T15:29:35.726Z,64.40
2018-09-29T15:32:04.856Z,63.80
2018-09-29T15:34:33.925Z,64.90
2018-09-29T15:37:03.081Z,66.80
2018-09-29T15:39:32.017Z,66.40
2018-09-29T15:42:01.356Z,67.30
2018-09-29T15:44:30.469Z,65.10
2018-09-29T15:46:59.545Z,65.80
2018-09-29T15:49:28.476Z,61.30
2018-09-29T15:51:57.537Z,65.20
2018-09-29T15:54:26.645Z,64.80
2018-09-29T15:56:55.750Z,63.80
2018-09-29T15:59:24.847Z,67.00
2018-09-29T16:01:53.997Z,67.50
2018-09-29T16:04:23.001Z,67.20
2018-09-29T16:06:53.449Z,67.90
2018-09-29T16:09:22.468Z,67.00
2018-09-29T16:11:52.907Z,68.10
2018-09-29T16:14:21.794Z,70.30
2018-09-29T16:16:51.036Z,70.40
2018-09-29T16:19:20.035Z,70.10
2018-09-29T16:21:49.155Z,70.80
2018-09-29T16:24:18.797Z,71.70
2018-09-29T16:26:47.861Z,73.10
2018-09-29T16:29:17.605Z,74.00
2018-09-29T16:31:46.834Z,74.50
2018-09-29T16:34:15.878Z,76.60
2018-09-29T16:36:45.441Z,77.40
2018-09-29T16:39:14.656Z,78.60
2018-09-29T16:41:46.109Z,79.00
2018-09-29T16:44:15.853Z,79.40
2018-09-29T16:46:44.930Z,80.90
2018-09-29T16:49:13.905Z,81.90
2018-09-29T16:51:43.061Z,83.00
2018-09-29T16:54:12.107Z,84.20
2018-09-29T16:56:40.931Z,84.40
2018-09-29T16:59:09.744Z,85.10
2018-09-29T17:01:38.640Z,86.60
2018-09-29T17:04:07.540Z,87.50
2018-09-29T17:06:36.714Z,88.30
2018-09-29T17:09:11.423Z,88.60
2018-09-29T17:11:46.044Z,88.80
2018-09-29T17:14:16.013Z,89.30
2018-09-29T17:16:45.669Z,89.90
2018-09-29T17:19:14.736Z,90.20
2018-09-29T17:21:44.997Z,90.40
2018-09-29T17:24:13.983Z,90.80
2018-09-29T17:26:43.005Z,91.30
2018-09-29T17:29:12.079Z,91.50
2018-09-29T17:31:41.612Z,91.90
2018-09-29T17:34:10.629Z,92.10
2018-09-29T17:36:39.732Z,92.60
2018-09-29T17:39:10.380Z,92.60
2018-09-29T17:41:39.549Z,93.10
2018-09-29T17:44:08.811Z,93.30
2018-09-29T17:46:38.060Z,93.60
2018-09-29T17:49:07.163Z,93.70
2018-09-29T17:51:36.229Z,93.90
2018-09-29T17:54:05.415Z,94.10
2018-09-29T17:56:34.715Z,94.10
2018-09-29T17:59:04.033Z,94.10
2018-09-29T18:01:33.200Z,94.20
2018-09-29T18:04:02.408Z,94.40
2018-09-29T18:06:31.607Z,94.60
2018-09-29T18:09:00.861Z,94.80
2018-09-29T18:11:30.758Z,95.20
2018-09-29T18:13:59.762Z,95.20
2018-09-29T18:16:28.980Z,95.40
2018-09-29T18:18:58.242Z,95.60
2018-09-29T18:21:29.406Z,95.80
2018-09-29T18:23:58.792Z,96.10
2018-09-29T18:29:49.321Z,96.40
2018-09-29T18:32:21.162Z,96.50
2018-09-29T18:34:50.376Z,96.70
2018-09-29T18:37:19.699Z,96.80
2018-09-29T18:39:49.701Z,97.10
2018-09-29T18:42:19.126Z,97.10
2018-09-29T18:44:48.434Z,97.20
2018-09-29T18:47:17.442Z,97.50
2018-09-29T18:49:46.590Z,97.60
2018-09-29T18:52:15.782Z,97.80
2018-09-29T18:54:44.999Z,97.70
2018-09-29T18:57:14.407Z,98.00
2018-09-29T18:59:44.334Z,97.90
2018-09-29T19:02:15.520Z,98.10
2018-09-29T19:04:47.700Z,98.50
2018-09-29T19:07:23.026Z,98.20
2018-09-29T19:09:52.117Z,98.30
2018-09-29T19:12:21.357Z,98.30
2018-09-29T19:14:50.586Z,98.20
2018-09-29T19:17:19.944Z,98.40
2018-09-29T19:19:49.154Z,98.70
2018-09-29T19:22:18.297Z,98.90
2018-09-29T19:24:59.856Z,99.00
2018-09-29T19:27:36.416Z,99.20
2018-09-29T19:30:13.564Z,99.20
2018-09-29T19:32:44.761Z,99.30
2018-09-29T19:38:16.527Z,99.70
2018-09-29T19:40:45.657Z,99.40
2018-09-29T19:43:14.914Z,99.50
2018-09-29T19:45:44.353Z,99.60
2018-09-29T19:48:13.329Z,99.50
2018-09-29T19:50:42.764Z,99.70
2018-09-29T19:53:12.043Z,99.70
2018-09-29T19:55:41.857Z,99.90
2018-09-29T19:58:12.716Z,99.90
2018-09-29T20:00:44.304Z,99.90
2018-09-29T20:03:13.879Z,99.90
2018-09-29T20:05:43.175Z,99.90
2018-09-29T20:08:16.222Z,99.90
2018-09-29T20:10:47.262Z,99.90
2018-09-29T20:13:17.329Z,99.90
2018-09-29T20:15:48.983Z,99.90
2018-09-29T20:18:21.809Z,99.90
2018-09-29T20:20:52.461Z,99.90
2018-09-29T20:23:27.132Z,99.90
2018-09-29T20:25:56.241Z,99.90
2018-09-29T20:28:26.272Z,99.90
2018-09-29T20:30:56.548Z,99.90
2018-09-29T20:33:26.602Z,99.90
2018-09-29T20:35:57.023Z,99.90
2018-09-29T20:38:26.046Z,99.90
2018-09-29T20:40:55.218Z,99.90
2018-09-29T20:43:28.861Z,99.90
2018-09-29T20:45:58.280Z,99.90
2018-09-29T20:48:32.963Z,99.90
2018-09-29T20:51:10.185Z,99.90
2018-09-29T20:59:33.064Z,99.90
2018-09-29T21:02:04.836Z,99.90
2018-09-29T21:04:39.933Z,99.90
2018-09-29T21:07:14.487Z,99.90
2018-09-29T21:09:50.256Z,99.90
2018-09-29T21:15:34.551Z,99.90
2018-09-29T21:18:10.820Z,99.90
2018-09-29T21:20:57.335Z,99.90
2018-09-29T21:23:27.440Z,99.90
2018-09-29T21:25:59.570Z,99.90
2018-09-29T21:28:28.786Z,99.90
2018-09-29T21:30:57.915Z,99.90
2018-09-29T21:33:26.993Z,99.90
2018-09-29T21:35:56.220Z,99.90
2018-09-29T21:38:25.082Z,99.90
2018-09-29T21:40:53.961Z,99.90
2018-09-29T21:43:23.189Z,99.90
2018-09-29T21:45:53.189Z,99.90
2018-09-29T21:48:22.403Z,99.90
2018-09-29T21:50:53.292Z,99.90
2018-09-29T21:53:23.222Z,99.90
2018-09-29T21:55:54.025Z,99.90
2018-09-29T21:58:23.696Z,99.90
2018-09-29T22:00:52.701Z,99.90
2018-09-29T22:03:21.769Z,99.90
2018-09-29T22:05:50.967Z,99.90
2018-09-29T22:08:20.490Z,99.90
2018-09-29T22:10:49.521Z,99.90
2018-09-29T22:13:18.402Z,99.90
2018-09-29T22:15:50.145Z,99.90
2018-09-29T22:18:19.166Z,99.90
2018-09-29T22:20:50.058Z,99.90
2018-09-29T22:23:19.513Z,99.90
2018-09-29T22:25:49.378Z,99.90
2018-09-29T22:28:18.551Z,99.90
2018-09-29T22:30:47.633Z,99.90
2018-09-29T22:33:17.297Z,99.90
2018-09-29T22:35:47.089Z,99.90
2018-09-29T22:38:16.174Z,99.90
2018-09-29T22:40:46.983Z,99.90
2018-09-29T22:43:16.000Z,99.90
2018-09-29T22:45:45.023Z,99.90
2018-09-29T22:48:14.916Z,99.90
2018-09-29T22:50:43.958Z,99.90
2018-09-29T22:53:13.035Z,99.90
2018-09-29T22:55:43.369Z,99.90
2018-09-29T22:58:12.476Z,99.90
2018-09-29T23:00:43.181Z,99.90
2018-09-29T23:03:13.372Z,99.90
2018-09-29T23:05:42.656Z,99.90
2018-09-29T23:08:12.352Z,99.90
2018-09-29T23:10:41.528Z,99.90
2018-09-29T23:13:10.678Z,99.90
2018-09-29T23:15:39.600Z,99.90
2018-09-29T23:18:10.520Z,99.90
2018-09-29T23:20:40.256Z,99.90
2018-09-29T23:23:10.689Z,99.90
2018-09-29T23:25:39.759Z,99.90
2018-09-29T23:28:08.857Z,99.90
2018-09-29T23:30:38.628Z,99.90
2018-09-29T23:33:08.689Z,99.90
2018-09-29T23:35:39.956Z,99.90
2018-09-29T23:38:09.655Z,99.90
2018-09-29T23:40:39.210Z,99.90
2018-09-29T23:43:12.121Z,99.90
2018-09-29T23:45:41.276Z,99.90
2018-09-29T23:48:10.335Z,99.90
2018-09-29T23:50:39.523Z,99.90
2018-09-29T23:53:09.199Z,99.90
2018-09-29T23:55:38.961Z,99.90
2018-09-29T23:58:07.971Z,99.90
